Terminal Aerodrome Forecast
Issued by NWS

Home | Current Version | Previous Version | Graphics & Text | Print | Product List | Glossary On
Versions: 1 2 3 4 5 6 7 8 9 10 11 12 13 14 15 16 17 18 19 20
944
FTUS43 KABR 201725
TAFATY
TAF
KATY 201725Z 2018/2118 32016KT P6SM BKN025 OVC040
     FM202000 30012KT P6SM SCT060
     FM210100 24006KT P6SM SKC=

USA.gov is the U.S. government's official web portal to all federal, state and local government web resources and services.